Flight Track Log - Related Links

Times and Time Zones

All times are in EDT time to prevent confusion due to time zone crossing. See the N828KT flight status page for this flight to view local times or setup timezone preferences in your user account.

Time Position Orientation Groundspeed Altitude Reporting Facility
EDT Latitude Longitude Course Direction KTS MPH feet Rate Location/Type
Mon 03:51:11 PM 62.3333 -150.1000 175° South 120 138 2,300  Level Anchorage Center
Mon 03:52:11 PM 62.3000 -150.1000 180° South 110 127 3,400 893 Climbing Anchorage Center
Mon 03:53:12 PM 62.2667 -150.1000 180° South 120 138 4,100 347 Climbing Anchorage Center
Mon 03:54:12 PM 62.2167 -150.0833 171° South 140 161 4,100 -50 Level Anchorage Center
Mon 03:55:13 PM 62.1833 -150.0667 167° South 150 173 4,000 -50 Descending Anchorage Center
Mon 03:56:00 PM 62.0520 -150.0473 175° South  Level FlightAware Approximate
Mon 03:56:13 PM 62.1333 -150.0500 171° South 150 173 4,000  Level Anchorage Center
Mon 03:57:13 PM 62.1000 -150.0333 167° South 150 173 4,000 50 Level Anchorage Center
Mon 03:58:13 PM 62.0500 -150.0333 180° South 150 173 4,100  Climbing Anchorage Center
Mon 03:59:13 PM 62.0167 -150.0333 180° South 150 173 4,000 -50 Descending Anchorage Center
Mon 04:00:14 PM 61.9667 -150.0167 171° South 150 173 4,000  Level Anchorage Center
Mon 04:01:14 PM 61.9333 -150.0000 167° South 150 173 4,000  Level Anchorage Center
Mon 04:03:00 PM 61.8548 -149.9944 178° South  Level FlightAware Approximate
Mon 04:10:00 PM 61.5434 -149.9685 182° South  Level FlightAware Approximate
Mon 04:11:00 PM 61.4990 -149.9719 182° South  Level FlightAware Approximate
Mon 04:12:00 PM 61.4545 -149.9753 182° South  Level FlightAware Approximate
Mon 04:13:00 PM 61.4100 -149.9787 182° South  Level FlightAware Approximate
Mon 04:14:00 PM 61.3656 -149.9821 182° South  Level FlightAware Approximate
Mon 04:15:00 PM 61.3211 -149.9833 180° South  Level FlightAware Approximate
Mon 04:16:00 PM 61.2766 -149.9833 180° South  Level FlightAware Approximate
Mon 04:17:00 PM 61.2321 -149.9833 180° South  Level FlightAware Approximate
Mon 04:18:00 PM 61.1876 -149.9833 180° South  Level FlightAware Approximate
Mon 04:19:00 PM 61.1667 -149.9833 180° South  Level FlightAware Approximate
Mon 04:20:00 PM 61.1741 -149.9982 180° South  Level Estimated
Mon 04:21:00 PM 61.1741 -149.9982 180° South  Level Estimated
Mon 04:22:00 PM 61.1741 -149.9982 180° South  Level Estimated
Mon 04:23:00 PM 61.1741 -149.9982 180° South  Level Estimated
Mon 04:24:00 PM 61.1741 -149.9982 180° South  Level Estimated
Mon 04:25:00 PM 61.1741 -149.9982 180° South  Level Estimated
Mon 04:26:00 PM 61.1741 -149.9982 180° South  Level Estimated
Mon 04:27:00 PM 61.1741 -149.9982 180° South  Level Estimated
Mon 04:28:00 PM 61.1741 -149.9982 180° South  Level Estimated
Mon 04:29:00 PM 61.1741 -149.9982 180° South  Level Estimated
Mon 04:30:00 PM 61.1741 -149.9982 180° South  Level Estimated
Mon 04:31:00 PM 61.1741 -149.9982 180° South  Level Estimated

Login

Don't have an account? Register now (free) for customized features, flight alerts, and more!